createdAt,value
2022-12-24T00:01:38.213Z,13.00
2022-12-24T00:04:07.458Z,13.32
2022-12-24T00:06:36.443Z,13.98
2022-12-24T00:09:05.411Z,14.30
2022-12-24T00:11:34.038Z,13.65
2022-12-24T00:14:03.699Z,13.10
2022-12-24T00:16:32.221Z,13.18
2022-12-24T00:19:00.859Z,13.95
2022-12-24T00:21:29.639Z,14.30
2022-12-24T00:23:58.360Z,13.10
2022-12-24T00:26:27.049Z,13.30
2022-12-24T00:28:56.341Z,14.52
2022-12-24T00:31:24.918Z,14.00
2022-12-24T00:33:53.887Z,13.38
2022-12-24T00:36:22.775Z,13.30
2022-12-24T00:38:51.395Z,13.15
2022-12-24T00:41:26.604Z,12.38
2022-12-24T00:44:10.291Z,13.07
2022-12-24T00:46:41.722Z,11.75
2022-12-24T00:49:12.002Z,12.65
2022-12-24T00:51:41.544Z,12.70
2022-12-24T00:54:11.297Z,13.88
2022-12-24T00:56:41.547Z,13.18
2022-12-24T00:59:12.994Z,13.45
2022-12-24T01:01:42.048Z,13.18
2022-12-24T01:04:31.018Z,13.35
2022-12-24T01:06:59.654Z,13.80
2022-12-24T01:09:30.070Z,15.20
2022-12-24T01:11:58.969Z,13.80
2022-12-24T01:14:27.823Z,12.25
2022-12-24T01:16:56.339Z,12.25
2022-12-24T01:19:25.251Z,12.48
2022-12-24T01:21:54.245Z,12.68
2022-12-24T01:24:22.970Z,13.13
2022-12-24T01:26:51.737Z,14.73
2022-12-24T01:29:20.798Z,13.52
2022-12-24T01:31:49.554Z,13.30
2022-12-24T01:34:18.462Z,12.50
2022-12-24T01:36:47.664Z,12.88
2022-12-24T01:39:16.851Z,12.57
2022-12-24T01:42:03.959Z,11.98
2022-12-24T01:44:36.891Z,13.50
2022-12-24T01:47:24.936Z,13.65
2022-12-24T01:50:02.262Z,11.90
2022-12-24T01:52:36.850Z,11.70
2022-12-24T01:55:14.176Z,13.10
2022-12-24T01:58:03.979Z,12.40
2022-12-24T02:00:32.433Z,12.40
2022-12-24T02:03:01.008Z,12.43
2022-12-24T02:05:54.327Z,12.82
2022-12-24T02:08:23.235Z,13.23
2022-12-24T02:10:51.689Z,12.60
2022-12-24T02:13:22.096Z,13.15
2022-12-24T02:16:21.776Z,13.13
2022-12-24T02:19:25.500Z,12.48
2022-12-24T02:22:11.682Z,12.40
2022-12-24T02:25:44.661Z,12.73
2022-12-24T02:28:37.422Z,14.13
2022-12-24T02:31:26.091Z,13.93
2022-12-24T02:34:18.710Z,14.30
2022-12-24T02:37:18.949Z,13.32
2022-12-24T02:39:52.920Z,13.75
2022-12-24T02:42:32.387Z,14.23
2022-12-24T02:45:11.194Z,13.00
2022-12-24T02:47:41.809Z,12.25
2022-12-24T02:50:14.357Z,13.30
2022-12-24T02:52:47.990Z,13.20
2022-12-24T02:55:56.567Z,13.45
2022-12-24T02:58:58.704Z,13.88
2022-12-24T03:04:42.559Z,13.65
2022-12-24T03:07:23.752Z,12.75
2022-12-24T03:09:57.161Z,12.18
2022-12-24T03:12:37.827Z,13.98
2022-12-24T03:15:12.504Z,13.95
2022-12-24T03:17:44.235Z,11.88
2022-12-24T03:22:43.158Z,11.52
2022-12-24T03:25:11.399Z,13.60
2022-12-24T03:27:40.966Z,12.52
2022-12-24T03:30:13.508Z,12.80
2022-12-24T03:32:42.234Z,12.80
2022-12-24T03:35:12.023Z,13.82
2022-12-24T03:37:40.332Z,14.25
2022-12-24T03:40:10.233Z,13.80
2022-12-24T03:42:38.187Z,12.88
2022-12-24T03:45:07.206Z,14.07
2022-12-24T03:47:35.589Z,12.27
2022-12-24T03:50:03.549Z,12.18
2022-12-24T03:52:31.366Z,13.75
2022-12-24T03:54:59.895Z,13.32
2022-12-24T03:57:28.073Z,12.73
2022-12-24T03:59:56.179Z,12.85
2022-12-24T04:02:25.237Z,12.48
2022-12-24T04:04:54.004Z,12.93
2022-12-24T04:07:22.237Z,12.35
2022-12-24T04:09:50.575Z,12.60
2022-12-24T04:12:18.733Z,11.93
2022-12-24T04:14:46.963Z,12.95
2022-12-24T04:17:15.437Z,11.65
2022-12-24T04:19:43.772Z,11.98
2022-12-24T04:22:11.927Z,12.70
2022-12-24T04:24:40.171Z,11.35
2022-12-24T04:27:10.827Z,12.10
2022-12-24T04:29:38.986Z,11.93
2022-12-24T04:32:07.293Z,11.75
2022-12-24T04:34:35.309Z,12.43
2022-12-24T04:37:03.600Z,13.02
2022-12-24T04:39:32.057Z,12.55
2022-12-24T04:42:00.345Z,13.50
2022-12-24T04:44:28.394Z,12.65
2022-12-24T04:46:56.719Z,12.77
2022-12-24T04:49:25.108Z,13.23
2022-12-24T04:51:53.333Z,13.80
2022-12-24T04:54:22.163Z,13.27
2022-12-24T04:56:50.260Z,13.23
2022-12-24T04:59:18.591Z,11.07
2022-12-24T05:01:47.056Z,11.93
2022-12-24T05:04:15.571Z,12.75
2022-12-24T05:06:43.452Z,12.95
2022-12-24T05:09:11.925Z,12.13
2022-12-24T05:11:39.977Z,11.40
2022-12-24T05:14:15.877Z,12.85
2022-12-24T05:16:44.627Z,12.95
2022-12-24T05:19:14.213Z,13.48
2022-12-24T05:21:42.535Z,13.30
2022-12-24T05:24:32.621Z,13.05
2022-12-24T05:27:00.638Z,13.32
2022-12-24T05:29:29.065Z,13.10
2022-12-24T05:31:57.537Z,11.93
2022-12-24T05:34:25.722Z,12.82
2022-12-24T05:36:54.224Z,12.60
2022-12-24T05:39:22.384Z,12.27
2022-12-24T05:41:50.415Z,11.70
2022-12-24T05:44:19.024Z,13.10
2022-12-24T05:46:47.434Z,12.15
2022-12-24T05:49:15.867Z,12.40
2022-12-24T05:51:44.206Z,12.25
2022-12-24T05:54:12.317Z,12.20
2022-12-24T05:56:40.701Z,11.35
2022-12-24T05:59:09.791Z,11.65
2022-12-24T06:01:38.539Z,11.35
2022-12-24T06:04:07.204Z,11.82
2022-12-24T06:06:35.685Z,11.55
2022-12-24T06:09:04.334Z,12.32
2022-12-24T06:11:32.386Z,10.73
2022-12-24T06:14:03.231Z,10.68
2022-12-24T06:16:31.500Z,11.32
2022-12-24T06:18:59.705Z,10.55
2022-12-24T06:21:28.202Z,10.75
2022-12-24T06:23:56.513Z,10.77
2022-12-24T06:26:24.955Z,11.10
2022-12-24T06:28:53.356Z,10.57
2022-12-24T06:31:23.833Z,10.73
2022-12-24T06:33:53.580Z,9.93
2022-12-24T06:36:24.898Z,12.20
2022-12-24T06:38:55.033Z,12.52
2022-12-24T06:41:24.113Z,13.70
2022-12-24T06:43:54.064Z,17.13
2022-12-24T06:46:23.046Z,17.42
2022-12-24T06:48:51.559Z,24.42
2022-12-24T06:51:21.813Z,16.63
2022-12-24T06:53:53.814Z,13.98
2022-12-24T06:56:22.408Z,11.95
2022-12-24T06:58:51.609Z,11.52
2022-12-24T07:01:21.070Z,11.45
2022-12-24T07:03:49.516Z,11.73
2022-12-24T07:06:30.863Z,10.63
2022-12-24T07:08:59.376Z,10.18
2022-12-24T07:11:28.169Z,11.68
2022-12-24T07:13:56.609Z,11.20
2022-12-24T07:16:24.932Z,10.95
2022-12-24T07:18:53.367Z,11.52
2022-12-24T07:21:22.160Z,10.82
2022-12-24T07:23:50.420Z,11.50
2022-12-24T07:26:18.918Z,11.35
2022-12-24T07:28:47.152Z,12.18
2022-12-24T07:31:15.608Z,13.93
2022-12-24T07:33:43.930Z,12.45
2022-12-24T07:36:21.722Z,10.77
2022-12-24T07:38:51.269Z,10.55
2022-12-24T07:41:21.219Z,9.90
2022-12-24T07:43:50.333Z,9.80
2022-12-24T07:46:19.317Z,9.02
2022-12-24T07:48:48.363Z,9.20
2022-12-24T07:51:17.393Z,8.75
2022-12-24T07:53:48.166Z,9.23
2022-12-24T07:56:17.204Z,9.23
2022-12-24T07:58:45.999Z,9.73
2022-12-24T08:01:14.477Z,8.95
2022-12-24T08:03:43.155Z,9.77
2022-12-24T08:06:12.385Z,9.13
2022-12-24T08:08:40.751Z,10.95
2022-12-24T08:11:09.119Z,11.88
2022-12-24T08:13:37.483Z,10.30
2022-12-24T08:16:06.998Z,10.95
2022-12-24T08:18:35.507Z,11.18
2022-12-24T08:21:07.252Z,10.57
2022-12-24T08:23:39.024Z,10.70
2022-12-24T08:28:38.030Z,10.80
2022-12-24T08:31:07.140Z,9.25
2022-12-24T08:33:36.137Z,8.45
2022-12-24T08:36:06.096Z,8.82
2022-12-24T08:38:34.815Z,8.57
2022-12-24T08:41:03.303Z,9.05
2022-12-24T08:43:31.983Z,9.32
2022-12-24T08:46:06.469Z,10.10
2022-12-24T08:48:35.480Z,9.48
2022-12-24T08:51:10.311Z,9.13
2022-12-24T08:53:40.324Z,9.27
2022-12-24T08:56:10.557Z,10.20
2022-12-24T08:58:39.683Z,10.13
2022-12-24T09:01:17.976Z,9.35
2022-12-24T09:03:47.334Z,9.60
2022-12-24T09:06:16.911Z,9.40
2022-12-24T09:08:45.926Z,9.13
2022-12-24T09:11:18.128Z,9.60
2022-12-24T09:13:46.902Z,8.50
2022-12-24T09:16:15.623Z,9.15
2022-12-24T09:18:44.438Z,9.13
2022-12-24T09:21:16.447Z,8.73
2022-12-24T09:23:47.563Z,8.73
2022-12-24T09:26:21.389Z,9.00
2022-12-24T09:28:52.017Z,8.15
2022-12-24T09:31:22.172Z,10.55
2022-12-24T09:33:51.793Z,10.05
2022-12-24T09:36:22.403Z,10.18
2022-12-24T09:38:51.900Z,9.52
2022-12-24T09:42:19.977Z,9.18
2022-12-24T09:45:03.342Z,9.20
2022-12-24T09:47:50.165Z,9.45
2022-12-24T09:50:37.715Z,9.30
2022-12-24T09:53:21.831Z,8.65
2022-12-24T09:55:56.771Z,8.80
2022-12-24T09:58:49.200Z,8.77
2022-12-24T10:01:20.094Z,11.07
2022-12-24T10:03:48.829Z,10.33
2022-12-24T10:06:30.225Z,9.00
2022-12-24T10:09:04.044Z,10.60
2022-12-24T10:12:05.957Z,8.98
2022-12-24T10:15:02.045Z,8.77
2022-12-24T10:17:52.757Z,8.10
2022-12-24T10:20:41.476Z,8.00
2022-12-24T10:24:00.854Z,8.05
2022-12-24T10:26:46.973Z,8.35
2022-12-24T10:29:23.806Z,8.40
2022-12-24T10:32:06.089Z,9.63
2022-12-24T10:34:50.051Z,12.35
2022-12-24T10:37:25.289Z,12.20
2022-12-24T10:39:54.515Z,9.65
2022-12-24T10:42:34.341Z,9.13
2022-12-24T10:45:09.447Z,8.43
2022-12-24T10:47:41.025Z,8.73
2022-12-24T10:51:00.179Z,8.15
2022-12-24T10:53:54.678Z,7.88
2022-12-24T10:56:23.344Z,8.73
2022-12-24T10:58:55.796Z,9.18
2022-12-24T11:01:50.195Z,9.60
2022-12-24T11:04:22.981Z,9.10
2022-12-24T11:07:03.437Z,10.27
2022-12-24T11:09:36.423Z,10.35
2022-12-24T11:12:22.239Z,10.07
2022-12-24T11:15:19.050Z,9.57
2022-12-24T11:18:06.622Z,7.72
2022-12-24T11:20:35.777Z,8.60
2022-12-24T11:23:03.927Z,10.00
2022-12-24T11:25:37.781Z,12.73
2022-12-24T11:28:30.501Z,10.60
2022-12-24T11:31:04.255Z,10.30
2022-12-24T11:33:46.051Z,12.68
2022-12-24T11:38:52.191Z,17.10
2022-12-24T11:41:20.436Z,25.27
2022-12-24T11:43:52.464Z,20.83
2022-12-24T11:46:52.631Z,13.40
2022-12-24T11:49:31.297Z,13.85
2022-12-24T11:52:13.283Z,12.80
2022-12-24T11:55:13.771Z,11.95
2022-12-24T11:58:24.032Z,12.77
2022-12-24T12:01:01.018Z,11.80
2022-12-24T12:04:14.511Z,12.40
2022-12-24T12:06:50.793Z,12.25
2022-12-24T12:09:26.138Z,14.25
2022-12-24T12:12:27.681Z,12.77
2022-12-24T12:15:14.412Z,13.50
2022-12-24T12:17:59.896Z,14.02
2022-12-24T12:20:43.244Z,14.20
2022-12-24T12:23:25.141Z,17.45
2022-12-24T12:26:26.287Z,19.98
2022-12-24T12:29:06.336Z,20.65
2022-12-24T12:31:48.762Z,19.80
2022-12-24T12:34:29.906Z,22.75
2022-12-24T12:37:12.641Z,20.42
2022-12-24T12:39:44.204Z,21.25
2022-12-24T12:42:37.138Z,20.58
2022-12-24T12:45:39.988Z,20.50
2022-12-24T12:48:45.636Z,23.30
2022-12-24T12:51:40.551Z,23.60
2022-12-24T12:54:51.947Z,19.05
2022-12-24T12:57:26.789Z,21.33
2022-12-24T13:00:02.544Z,21.05
2022-12-24T13:02:46.744Z,18.92
2022-12-24T13:05:55.668Z,20.50
2022-12-24T13:09:10.183Z,19.95
2022-12-24T13:12:23.612Z,17.13
2022-12-24T13:15:03.232Z,17.23
2022-12-24T13:17:55.440Z,20.13
2022-12-24T13:20:37.119Z,12.15
2022-12-24T13:23:17.647Z,9.88
2022-12-24T13:25:53.572Z,11.52
2022-12-24T13:28:25.653Z,12.75
2022-12-24T13:31:20.277Z,12.65
2022-12-24T13:33:55.260Z,14.07
2022-12-24T13:36:24.494Z,13.73
2022-12-24T13:39:00.406Z,14.68
2022-12-24T13:41:42.029Z,16.08
2022-12-24T13:44:13.850Z,15.27
2022-12-24T13:47:05.015Z,16.70
2022-12-24T13:49:53.178Z,19.33
2022-12-24T13:52:40.669Z,18.17
2022-12-24T13:55:17.923Z,15.65
2022-12-24T13:58:05.840Z,15.15
2022-12-24T14:01:01.601Z,16.33
2022-12-24T14:03:46.234Z,18.20
2022-12-24T14:06:29.911Z,20.40
2022-12-24T14:09:19.874Z,21.25
2022-12-24T14:11:56.319Z,22.48
2022-12-24T14:14:39.800Z,21.73
2022-12-24T14:17:23.952Z,23.88
2022-12-24T14:20:01.547Z,21.92
2022-12-24T14:22:38.138Z,20.90
2022-12-24T14:25:23.005Z,18.65
2022-12-24T14:28:24.414Z,17.98
2022-12-24T14:31:06.707Z,18.55
2022-12-24T14:33:36.683Z,19.23
2022-12-24T14:36:05.483Z,16.80
2022-12-24T14:38:34.723Z,17.88
2022-12-24T14:41:34.227Z,17.92
2022-12-24T14:44:11.274Z,18.80
2022-12-24T14:46:59.139Z,23.85
2022-12-24T14:50:11.925Z,27.40
2022-12-24T14:53:06.263Z,23.85
2022-12-24T14:55:41.947Z,27.45
2022-12-24T14:58:46.835Z,25.95
2022-12-24T15:01:24.440Z,26.75
2022-12-24T15:04:06.300Z,26.15
2022-12-24T15:06:58.511Z,30.30
2022-12-24T15:09:31.213Z,28.45
2022-12-24T15:12:03.598Z,27.17
2022-12-24T15:14:43.199Z,25.65
2022-12-24T15:17:13.575Z,27.30
2022-12-24T15:19:46.015Z,28.30
2022-12-24T15:22:30.437Z,30.48
2022-12-24T15:24:58.650Z,30.70
2022-12-24T15:27:33.381Z,28.83
2022-12-24T15:30:14.614Z,29.52
2022-12-24T15:32:43.136Z,27.08
2022-12-24T15:35:55.647Z,27.25
2022-12-24T15:38:36.770Z,25.92
2022-12-24T15:41:17.466Z,26.95
2022-12-24T15:43:47.596Z,25.88
2022-12-24T15:46:28.362Z,25.77
2022-12-24T15:49:00.607Z,25.10
2022-12-24T15:51:36.963Z,26.15
2022-12-24T15:54:16.348Z,22.27
2022-12-24T15:56:46.699Z,23.17
2022-12-24T15:59:38.261Z,23.30
2022-12-24T16:02:36.750Z,24.65
2022-12-24T16:05:31.871Z,21.58
2022-12-24T16:08:17.472Z,27.00
2022-12-24T16:10:52.150Z,23.95
2022-12-24T16:13:34.929Z,24.48
2022-12-24T16:16:22.840Z,23.17
2022-12-24T16:19:00.785Z,24.35
2022-12-24T16:21:35.480Z,25.77
2022-12-24T16:24:24.783Z,26.27
2022-12-24T16:26:54.922Z,30.27
2022-12-24T16:29:24.252Z,30.75
2022-12-24T16:31:57.964Z,29.95
2022-12-24T16:34:30.993Z,30.50
2022-12-24T16:37:02.034Z,30.77
2022-12-24T16:39:35.110Z,28.27
2022-12-24T16:42:23.717Z,27.45
2022-12-24T16:44:54.385Z,26.23
2022-12-24T16:47:33.626Z,26.90
2022-12-24T16:50:07.907Z,25.88
2022-12-24T16:52:37.515Z,24.90
2022-12-24T16:55:06.169Z,25.30
2022-12-24T16:57:34.964Z,23.38
2022-12-24T17:00:07.862Z,22.90
2022-12-24T17:02:36.810Z,24.52
2022-12-24T17:05:06.169Z,23.52
2022-12-24T17:07:38.321Z,25.13
2022-12-24T17:10:14.264Z,24.70
2022-12-24T17:12:44.574Z,24.60
2022-12-24T17:15:12.912Z,23.88
2022-12-24T17:17:41.472Z,23.80
2022-12-24T17:20:16.684Z,24.00
2022-12-24T17:22:47.523Z,23.20
2022-12-24T17:25:16.995Z,23.10
2022-12-24T17:27:45.591Z,23.20
2022-12-24T17:30:14.218Z,23.20
2022-12-24T17:32:43.225Z,21.77
2022-12-24T17:35:11.587Z,22.33
2022-12-24T17:37:39.496Z,24.30
2022-12-24T17:40:09.374Z,23.45
2022-12-24T17:42:37.750Z,22.30
2022-12-24T17:45:07.119Z,23.90
2022-12-24T17:47:35.859Z,23.83
2022-12-24T17:50:04.691Z,23.90
2022-12-24T17:52:34.848Z,22.15
2022-12-24T17:55:03.695Z,23.05
2022-12-24T17:57:32.151Z,24.05
2022-12-24T18:00:00.420Z,23.65
2022-12-24T18:02:30.789Z,24.80
2022-12-24T18:04:59.329Z,22.50
2022-12-24T18:07:27.669Z,23.67
2022-12-24T18:09:55.983Z,24.60
2022-12-24T18:12:24.156Z,24.33
2022-12-24T18:14:52.115Z,24.85
2022-12-24T18:17:20.525Z,24.73
2022-12-24T18:19:49.011Z,23.00
2022-12-24T18:22:17.042Z,23.83
2022-12-24T18:24:45.612Z,23.40
2022-12-24T18:27:13.926Z,23.63
2022-12-24T18:29:42.748Z,23.17
2022-12-24T18:32:13.178Z,19.58
2022-12-24T18:34:41.428Z,20.35
2022-12-24T18:37:09.808Z,18.83
2022-12-24T18:39:38.595Z,19.95
2022-12-24T18:42:06.988Z,18.90
2022-12-24T18:44:35.411Z,19.17
2022-12-24T18:47:03.793Z,20.02
2022-12-24T18:49:32.687Z,21.33
2022-12-24T18:52:05.714Z,23.23
2022-12-24T18:54:34.514Z,20.25
2022-12-24T18:57:04.000Z,21.30
2022-12-24T18:59:32.774Z,23.35
2022-12-24T19:02:01.563Z,22.67
2022-12-24T19:04:30.131Z,25.02
2022-12-24T19:07:00.619Z,25.73
2022-12-24T19:09:28.877Z,25.70
2022-12-24T19:11:57.693Z,23.42
2022-12-24T19:14:26.163Z,24.65
2022-12-24T19:16:54.619Z,25.85
2022-12-24T19:19:24.771Z,26.60
2022-12-24T19:21:53.546Z,23.40
2022-12-24T19:24:22.396Z,21.88
2022-12-24T19:26:50.718Z,21.30
2022-12-24T19:29:19.686Z,20.05
2022-12-24T19:31:48.365Z,20.23
2022-12-24T19:34:16.847Z,23.98
2022-12-24T19:36:45.093Z,19.73
2022-12-24T19:39:13.267Z,20.15
2022-12-24T19:41:41.617Z,20.88
2022-12-24T19:44:13.709Z,21.50
2022-12-24T19:46:41.953Z,20.90
2022-12-24T19:49:12.724Z,19.95
2022-12-24T19:51:41.710Z,20.10
2022-12-24T19:54:18.754Z,20.13
2022-12-24T19:56:47.967Z,19.50
2022-12-24T19:59:16.467Z,19.08
2022-12-24T20:01:45.131Z,19.13
2022-12-24T20:04:15.184Z,19.85
2022-12-24T20:06:43.677Z,19.13
2022-12-24T20:09:12.938Z,17.70
2022-12-24T20:11:41.278Z,19.75
2022-12-24T20:14:11.435Z,19.50
2022-12-24T20:16:40.130Z,18.75
2022-12-24T20:19:10.624Z,18.38
2022-12-24T20:21:38.767Z,17.92
2022-12-24T20:24:07.672Z,16.50
2022-12-24T20:26:36.505Z,18.70
2022-12-24T20:29:10.188Z,17.63
2022-12-24T20:31:39.267Z,18.63
2022-12-24T20:34:08.939Z,17.20
2022-12-24T20:36:37.744Z,16.38
2022-12-24T20:39:07.288Z,17.48
2022-12-24T20:41:36.904Z,16.65
2022-12-24T20:44:05.503Z,16.85
2022-12-24T20:46:34.231Z,15.48
2022-12-24T20:49:02.503Z,14.68
2022-12-24T20:51:30.992Z,15.23
2022-12-24T20:54:02.231Z,15.93
2022-12-24T20:56:31.839Z,16.85
2022-12-24T20:59:01.451Z,14.90
2022-12-24T21:01:30.506Z,17.38
2022-12-24T21:04:04.968Z,16.67
2022-12-24T21:06:35.396Z,15.40
2022-12-24T21:09:06.281Z,15.48
2022-12-24T21:11:50.353Z,16.55
2022-12-24T21:14:28.478Z,17.02
2022-12-24T21:16:56.989Z,16.77
2022-12-24T21:19:25.928Z,17.77
2022-12-24T21:21:55.602Z,16.15
2022-12-24T21:24:25.406Z,16.73
2022-12-24T21:26:53.927Z,15.70
2022-12-24T21:29:22.642Z,17.10
2022-12-24T21:31:51.882Z,15.40
2022-12-24T21:34:20.329Z,16.58
2022-12-24T21:36:48.706Z,15.20
2022-12-24T21:39:18.207Z,16.67
2022-12-24T21:41:46.915Z,17.17
2022-12-24T21:44:15.135Z,16.00
2022-12-24T21:46:44.036Z,15.20
2022-12-24T21:49:31.243Z,15.23
2022-12-24T21:52:00.013Z,15.23
2022-12-24T21:54:30.858Z,16.65
2022-12-24T21:57:21.513Z,15.50
2022-12-24T21:59:55.110Z,15.82
2022-12-24T22:02:29.200Z,18.60
2022-12-24T22:04:57.529Z,15.85
2022-12-24T22:07:47.320Z,16.02
2022-12-24T22:10:34.359Z,15.57
2022-12-24T22:13:07.726Z,15.02
2022-12-24T22:15:50.386Z,15.35
2022-12-24T22:18:22.327Z,15.25
2022-12-24T22:20:52.085Z,14.63
2022-12-24T22:23:20.477Z,16.23
2022-12-24T22:25:49.193Z,15.50
2022-12-24T22:28:17.604Z,16.38
2022-12-24T22:30:46.989Z,15.07
2022-12-24T22:33:15.765Z,14.75
2022-12-24T22:35:44.469Z,15.68
2022-12-24T22:38:13.460Z,16.70
2022-12-24T22:40:43.175Z,15.38
2022-12-24T22:43:12.260Z,15.40
2022-12-24T22:45:41.248Z,15.43
2022-12-24T22:48:11.735Z,14.68
2022-12-24T22:50:41.207Z,14.75
2022-12-24T22:53:10.015Z,14.65
2022-12-24T22:55:38.412Z,14.32
2022-12-24T22:58:07.190Z,14.13
2022-12-24T23:00:45.081Z,13.85
2022-12-24T23:03:14.251Z,13.82
2022-12-24T23:05:43.150Z,13.93
2022-12-24T23:08:13.100Z,15.15
2022-12-24T23:10:42.193Z,13.13
2022-12-24T23:13:31.969Z,13.32
2022-12-24T23:16:07.755Z,14.43
2022-12-24T23:18:39.223Z,14.38
2022-12-24T23:21:08.782Z,14.70
2022-12-24T23:23:37.637Z,14.93
2022-12-24T23:26:10.233Z,14.15
2022-12-24T23:28:39.300Z,13.50
2022-12-24T23:31:09.027Z,11.77
2022-12-24T23:33:37.872Z,13.95
2022-12-24T23:36:07.609Z,12.20
2022-12-24T23:38:36.391Z,13.02
2022-12-24T23:41:08.808Z,13.80
2022-12-24T23:43:38.533Z,13.98
2022-12-24T23:46:07.475Z,13.73
2022-12-24T23:48:36.381Z,12.43
2022-12-24T23:51:27.297Z,12.30
2022-12-24T23:53:57.567Z,11.70
2022-12-24T23:56:26.886Z,13.38
2022-12-24T23:58:56.213Z,13.48
